Time;durP1;ratioP1;P1;durP2;ratioP2;P2;SDS_P1;SDS_P2;PMS_P1;PMS_P2;Temp;Humidity;BMP_temperature;BMP_pressure;BME280_temperature;BME280_humidity;BME280_pressure;Samples;Min_cycle;Max_cycle;Signal;HPM_P1;HPM_P2
2020/12/02 00:00:57;;;;;;;9.88;8.05;;;;;;;;;;5065124;28;20303;-59
2020/12/02 00:03:31;;;;;;;8.43;7.60;;;;;;;;;;5057656;28;20179;-60
2020/12/02 00:05:57;;;;;;;8.70;7.80;;;;;;;;;;5064459;28;20570;-60
2020/12/02 00:08:26;;;;;;;8.45;7.55;;;;;;;;;;5072230;28;20452;-59
2020/12/02 00:10:52;;;;;;;9.35;7.63;;;;;;;;;;5061143;28;20209;-59
2020/12/02 00:13:21;;;;;;;8.48;7.53;;;;;;;;;;5070116;28;20174;-59
2020/12/02 00:15:47;;;;;;;9.85;7.70;;;;;;;;;;5076300;28;20577;-59
2020/12/02 00:18:14;;;;;;;8.10;7.30;;;;;;;;;;5072602;28;20172;-59
2020/12/02 00:20:40;;;;;;;8.70;7.80;;;;;;;;;;5056718;28;20164;-59
2020/12/02 00:23:06;;;;;;;8.63;7.15;;;;;;;;;;5065373;28;20269;-59
2020/12/02 00:25:32;;;;;;;8.50;7.35;;;;;;;;;;5057720;28;20175;-59
2020/12/02 00:28:02;;;;;;;8.10;7.30;;;;;;;;;;5064369;28;20183;-59
2020/12/02 00:30:28;;;;;;;9.43;7.65;;;;;;;;;;5056396;28;20213;-59
2020/12/02 00:33:06;;;;;;;7.70;6.90;;;;;;;;;;5074868;28;20183;-59
2020/12/02 00:35:32;;;;;;;7.93;7.13;;;;;;;;;;5060669;28;20170;-59
2020/12/02 00:37:58;;;;;;;8.35;7.40;;;;;;;;;;5072033;28;20431;-59
2020/12/02 00:40:23;;;;;;;7.75;6.60;;;;;;;;;;5058743;28;20270;-59
2020/12/02 00:42:49;;;;;;;7.15;6.40;;;;;;;;;;5057488;28;20182;-59
2020/12/02 00:45:15;;;;;;;7.93;7.13;;;;;;;;;;5055781;28;20183;-59
2020/12/02 00:47:41;;;;;;;7.53;6.72;;;;;;;;;;5062715;28;20197;-59
2020/12/02 00:50:09;;;;;;;7.20;6.50;;;;;;;;;;5067511;28;20596;-59
2020/12/02 00:52:35;;;;;;;7.75;6.95;;;;;;;;;;5074961;28;20167;-59
2020/12/02 00:55:01;;;;;;;7.40;6.65;;;;;;;;;;5059724;28;20246;-59
2020/12/02 00:57:34;;;;;;;8.90;6.50;;;;;;;;;;5065322;28;20479;-59
2020/12/02 01:00:01;;;;;;;8.25;6.75;;;;;;;;;;5069482;28;20435;-59
2020/12/02 01:02:33;;;;;;;7.28;6.57;;;;;;;;;;5078459;28;20188;-59
2020/12/02 01:04:59;;;;;;;7.43;6.63;;;;;;;;;;5079320;28;20177;-59
2020/12/02 01:07:26;;;;;;;7.22;6.53;;;;;;;;;;5079444;28;20175;-59
2020/12/02 01:09:52;;;;;;;7.88;7.07;;;;;;;;;;5079790;28;20239;-59
2020/12/02 01:12:18;;;;;;;7.13;6.43;;;;;;;;;;5073643;28;20187;-59
2020/12/02 01:14:45;;;;;;;6.93;6.22;;;;;;;;;;5079324;28;20171;-59
2020/12/02 01:17:13;;;;;;;7.70;6.90;;;;;;;;;;5079471;28;20167;-59
2020/12/02 01:19:39;;;;;;;7.55;6.85;;;;;;;;;;5079489;28;20158;-59
2020/12/02 01:22:09;;;;;;;7.75;6.95;;;;;;;;;;5079799;28;20448;-59
2020/12/02 01:24:58;;;;;;;7.45;6.75;;;;;;;;;;5078057;28;20170;-59
2020/12/02 01:27:30;;;;;;;6.90;6.20;;;;;;;;;;5062261;28;20191;-59
2020/12/02 01:29:56;;;;;;;6.88;6.28;;;;;;;;;;5086086;28;20189;-59
2020/12/02 01:32:23;;;;;;;7.68;6.60;;;;;;;;;;5090505;28;20550;-59
2020/12/02 01:34:51;;;;;;;7.10;6.40;;;;;;;;;;5075938;28;20210;-59
2020/12/02 01:37:31;;;;;;;7.32;6.63;;;;;;;;;;5078639;28;20468;-59
2020/12/02 01:39:57;;;;;;;6.57;5.97;;;;;;;;;;5067136;28;20225;-59
2020/12/02 01:42:23;;;;;;;7.57;6.78;;;;;;;;;;5059052;28;20179;-59
2020/12/02 01:44:49;;;;;;;7.15;6.47;;;;;;;;;;5058721;28;20258;-59
2020/12/02 01:47:25;;;;;;;7.30;6.60;;;;;;;;;;5076077;28;20178;-59
2020/12/02 01:50:02;;;;;;;6.70;6.00;;;;;;;;;;5059133;28;20185;-59
2020/12/02 01:52:32;;;;;;;6.40;5.80;;;;;;;;;;5059365;28;20254;-59
2020/12/02 01:55:00;;;;;;;7.03;6.32;;;;;;;;;;5059343;28;20558;-59
2020/12/02 01:57:31;;;;;;;7.10;6.40;;;;;;;;;;5066028;28;20292;-59
2020/12/02 02:00:00;;;;;;;7.63;6.45;;;;;;;;;;5098620;28;20555;-59
2020/12/02 02:02:31;;;;;;;6.95;6.25;;;;;;;;;;5093997;28;20194;-59
2020/12/02 02:05:00;;;;;;;6.22;5.63;;;;;;;;;;5078351;28;20170;-59
2020/12/02 02:07:27;;;;;;;7.03;6.32;;;;;;;;;;5078347;28;20235;-59
2020/12/02 02:10:01;;;;;;;6.93;6.22;;;;;;;;;;5074405;28;20541;-59
2020/12/02 02:12:45;;;;;;;6.35;5.75;;;;;;;;;;5078630;28;20563;-59
2020/12/02 02:15:28;;;;;;;7.80;6.65;;;;;;;;;;5078047;28;20206;-59
2020/12/02 02:17:58;;;;;;;6.55;5.95;;;;;;;;;;5077755;28;20178;-59
2020/12/02 02:20:28;;;;;;;6.55;5.93;;;;;;;;;;5077912;28;20213;-59
2020/12/02 02:22:54;;;;;;;6.55;5.95;;;;;;;;;;5071205;28;20634;-59
2020/12/02 02:34:54;;;;;;;6.70;5.43;;;;;;;;;;5071537;28;20173;-59
2020/12/02 02:37:21;;;;;;;7.32;6.63;;;;;;;;;;5058240;28;20175;-59
2020/12/02 02:39:47;;;;;;;6.38;5.60;;;;;;;;;;5058360;28;20182;-59
2020/12/02 02:42:22;;;;;;;6.25;5.65;;;;;;;;;;5085876;28;20166;-59
2020/12/02 02:44:48;;;;;;;6.43;5.82;;;;;;;;;;5078262;28;20182;-59
2020/12/02 02:47:14;;;;;;;6.70;5.90;;;;;;;;;;5098312;28;20173;-59
2020/12/02 02:49:40;;;;;;;6.93;6.22;;;;;;;;;;5098396;28;20429;-59
2020/12/02 02:52:06;;;;;;;6.35;5.72;;;;;;;;;;5096152;28;20176;-59
2020/12/02 02:54:32;;;;;;;6.68;5.80;;;;;;;;;;5074548;28;20201;-59
2020/12/02 02:56:58;;;;;;;6.03;5.43;;;;;;;;;;5077554;28;20206;-59
2020/12/02 02:59:24;;;;;;;6.32;5.72;;;;;;;;;;5064762;28;20177;-59
2020/12/02 03:01:50;;;;;;;6.15;5.55;;;;;;;;;;5091928;28;20668;-59
2020/12/02 03:04:16;;;;;;;6.88;6.10;;;;;;;;;;5064311;28;20187;-59
2020/12/02 03:06:42;;;;;;;6.28;5.68;;;;;;;;;;5057694;28;20261;-59
2020/12/02 03:09:11;;;;;;;5.60;5.10;;;;;;;;;;5057510;28;20592;-59
2020/12/02 03:11:37;;;;;;;6.18;5.60;;;;;;;;;;5057494;28;20195;-59
2020/12/02 03:14:03;;;;;;;5.70;5.20;;;;;;;;;;5057041;28;20179;-59
2020/12/02 03:16:35;;;;;;;6.63;5.68;;;;;;;;;;5058283;28;20214;-59
2020/12/02 03:19:21;;;;;;;5.80;5.30;;;;;;;;;;5077616;28;20538;-59
2020/12/02 03:21:48;;;;;;;6.25;5.65;;;;;;;;;;5077273;28;20553;-59
2020/12/02 03:24:15;;;;;;;6.20;5.60;;;;;;;;;;5076582;28;20218;-59
2020/12/02 03:26:41;;;;;;;5.75;5.22;;;;;;;;;;5076914;28;20173;-59
2020/12/02 03:29:07;;;;;;;5.70;5.20;;;;;;;;;;5091965;28;20185;-59
2020/12/02 03:31:33;;;;;;;5.95;5.45;;;;;;;;;;5073438;28;20203;-59
2020/12/02 03:33:59;;;;;;;5.75;5.22;;;;;;;;;;5072858;28;20179;-59
2020/12/02 03:36:26;;;;;;;5.53;5.03;;;;;;;;;;5076899;28;20167;-59
2020/12/02 03:38:52;;;;;;;5.70;5.20;;;;;;;;;;5076946;28;20196;-59
2020/12/02 03:41:18;;;;;;;6.18;5.32;;;;;;;;;;5076187;28;20178;-59
2020/12/02 03:43:44;;;;;;;5.88;5.30;;;;;;;;;;5075775;28;20490;-59
2020/12/02 03:46:10;;;;;;;6.30;5.70;;;;;;;;;;5078821;28;20179;-59
2020/12/02 03:48:37;;;;;;;5.72;5.22;;;;;;;;;;5061819;28;20232;-59
2020/12/02 03:51:03;;;;;;;5.53;5.03;;;;;;;;;;5076887;28;20633;-59
2020/12/02 03:53:29;;;;;;;6.32;5.72;;;;;;;;;;5076955;28;20167;-59
2020/12/02 03:55:55;;;;;;;6.10;5.50;;;;;;;;;;5076610;28;20594;-59
2020/12/02 03:58:21;;;;;;;5.82;5.22;;;;;;;;;;5076672;28;20216;-59
2020/12/02 04:00:47;;;;;;;6.07;5.47;;;;;;;;;;5063744;28;20214;-59
2020/12/02 04:03:13;;;;;;;5.63;5.13;;;;;;;;;;5058054;28;20209;-59
2020/12/02 04:05:39;;;;;;;6.05;5.45;;;;;;;;;;5056214;28;20196;-59
2020/12/02 04:08:06;;;;;;;5.60;5.10;;;;;;;;;;5067518;28;20546;-59
2020/12/02 04:10:32;;;;;;;5.43;4.93;;;;;;;;;;5056241;28;20465;-59
2020/12/02 04:12:58;;;;;;;5.68;5.15;;;;;;;;;;5064319;28;20273;-59
2020/12/02 04:15:25;;;;;;;6.22;5.63;;;;;;;;;;5076239;28;20492;-59
2020/12/02 04:17:51;;;;;;;5.80;5.22;;;;;;;;;;5076485;28;20171;-59
2020/12/02 04:20:20;;;;;;;6.05;5.47;;;;;;;;;;5076675;28;20430;-59
2020/12/02 04:22:46;;;;;;;6.05;5.45;;;;;;;;;;5075261;28;20174;-59
2020/12/02 04:25:13;;;;;;;5.72;5.20;;;;;;;;;;5082311;28;20178;-59
2020/12/02 04:27:39;;;;;;;5.68;5.18;;;;;;;;;;5073094;28;20179;-59
2020/12/02 04:30:05;;;;;;;6.20;5.40;;;;;;;;;;5076471;28;20465;-59
2020/12/02 04:32:31;;;;;;;5.65;5.15;;;;;;;;;;5071739;28;20172;-59
2020/12/02 04:35:01;;;;;;;6.05;5.45;;;;;;;;;;5067549;28;20488;-59
2020/12/02 04:37:28;;;;;;;6.10;5.50;;;;;;;;;;5072214;28;20202;-59
2020/12/02 04:39:54;;;;;;;5.55;5.05;;;;;;;;;;5060952;28;20171;-59
2020/12/02 04:42:20;;;;;;;5.90;5.35;;;;;;;;;;5075533;28;20476;-59
2020/12/02 04:44:49;;;;;;;5.45;4.95;;;;;;;;;;5071384;28;20175;-59
2020/12/02 04:47:14;;;;;;;6.05;5.47;;;;;;;;;;5066662;28;20433;-59
2020/12/02 04:49:40;;;;;;;6.07;5.47;;;;;;;;;;5076405;28;20163;-59
2020/12/02 04:52:12;;;;;;;5.90;5.30;;;;;;;;;;5088491;28;20217;-59
2020/12/02 04:54:38;;;;;;;5.57;5.07;;;;;;;;;;5058126;28;20697;-59
2020/12/02 04:57:05;;;;;;;6.45;5.80;;;;;;;;;;5063696;28;20183;-59
2020/12/02 04:59:34;;;;;;;5.93;5.32;;;;;;;;;;5076190;28;20189;-59
2020/12/02 05:02:01;;;;;;;5.97;5.38;;;;;;;;;;5073272;28;20277;-59
2020/12/02 05:04:28;;;;;;;5.75;5.15;;;;;;;;;;5069750;28;20171;-59
2020/12/02 05:07:06;;;;;;;5.90;5.30;;;;;;;;;;5076015;28;20356;-59
2020/12/02 05:09:33;;;;;;;5.85;5.05;;;;;;;;;;5075718;28;20174;-59
2020/12/02 05:11:59;;;;;;;5.57;5.00;;;;;;;;;;5075452;28;20213;-59
2020/12/02 05:14:39;;;;;;;6.43;5.82;;;;;;;;;;5055657;28;20164;-58
2020/12/02 05:17:17;;;;;;;5.82;5.00;;;;;;;;;;5056072;28;20246;-59
2020/12/02 05:19:48;;;;;;;5.78;5.13;;;;;;;;;;5088506;28;20184;-58
2020/12/02 05:22:16;;;;;;;5.22;4.72;;;;;;;;;;5056026;28;20447;-58
2020/12/02 05:24:47;;;;;;;5.68;5.18;;;;;;;;;;5063987;28;20278;-58
2020/12/02 05:27:16;;;;;;;5.90;5.30;;;;;;;;;;5056074;28;20298;-58
2020/12/02 05:30:11;;;;;;;6.07;5.47;;;;;;;;;;5055764;28;20195;-58
2020/12/02 05:32:37;;;;;;;5.30;4.80;;;;;;;;;;5056002;28;20229;-58
2020/12/02 05:35:13;;;;;;;5.63;5.13;;;;;;;;;;5058171;28;20278;-58
2020/12/02 05:37:41;;;;;;;5.78;5.18;;;;;;;;;;5066020;28;20217;-58
2020/12/02 05:40:12;;;;;;;5.95;5.32;;;;;;;;;;5079190;28;20162;-58
2020/12/02 05:42:42;;;;;;;5.68;5.07;;;;;;;;;;5074183;28;20221;-58
2020/12/02 05:45:13;;;;;;;6.10;5.50;;;;;;;;;;5068255;28;20222;-58
2020/12/02 05:47:40;;;;;;;5.90;5.05;;;;;;;;;;5074759;28;20203;-59
2020/12/02 05:50:15;;;;;;;5.07;4.57;;;;;;;;;;5078492;28;20202;-46
2020/12/02 05:52:42;;;;;;;6.65;5.05;;;;;;;;;;5066109;28;20236;-42
2020/12/02 05:55:16;;;;;;;6.85;4.70;;;;;;;;;;5057151;28;20273;-42
2020/12/02 05:57:49;;;;;;;9.70;5.88;;;;;;;;;;5058062;28;20214;-42
2020/12/02 06:00:15;;;;;;;7.25;5.40;;;;;;;;;;5068570;28;20573;-45
2020/12/02 06:02:41;;;;;;;7.15;5.38;;;;;;;;;;5076973;28;20178;-46
2020/12/02 06:05:11;;;;;;;10.23;5.90;;;;;;;;;;5076766;28;20186;-46
2020/12/02 06:07:54;;;;;;;10.20;6.20;;;;;;;;;;5072462;28;20179;-43
2020/12/02 06:10:30;;;;;;;11.57;6.03;;;;;;;;;;5057472;28;20194;-43
2020/12/02 06:12:57;;;;;;;8.45;6.18;;;;;;;;;;5064617;28;20227;-48
2020/12/02 06:15:24;;;;;;;8.20;5.55;;;;;;;;;;5083733;28;20204;-42
2020/12/02 06:17:52;;;;;;;13.98;5.95;;;;;;;;;;5072628;28;20229;-43
2020/12/02 06:20:24;;;;;;;9.32;5.32;;;;;;;;;;5057620;28;20194;-44
2020/12/02 06:22:51;;;;;;;8.60;6.10;;;;;;;;;;5057390;28;20183;-42
2020/12/02 06:25:36;;;;;;;10.65;6.18;;;;;;;;;;5074911;28;20198;-40
2020/12/02 06:28:02;;;;;;;9.32;6.25;;;;;;;;;;5068454;28;20207;-45
2020/12/02 06:30:28;;;;;;;9.40;5.82;;;;;;;;;;5074601;28;20234;-44
2020/12/02 06:32:58;;;;;;;9.00;6.15;;;;;;;;;;5076442;28;20204;-43
2020/12/02 06:35:24;;;;;;;9.45;5.88;;;;;;;;;;5096866;28;20166;-42
2020/12/02 06:38:29;;;;;;;10.05;5.20;;;;;;;;;;5089565;28;20442;-44
2020/12/02 06:40:58;;;;;;;8.73;5.93;;;;;;;;;;5054035;28;20246;-44
2020/12/02 06:43:24;;;;;;;9.55;5.72;;;;;;;;;;5043796;28;20270;-43
2020/12/02 06:45:50;;;;;;;7.22;5.60;;;;;;;;;;5051942;28;20203;-42
2020/12/02 06:48:25;;;;;;;7.88;6.15;;;;;;;;;;5067073;28;20434;-45
2020/12/02 06:50:56;;;;;;;9.43;5.85;;;;;;;;;;5076171;28;20197;-48
2020/12/02 06:53:22;;;;;;;9.00;6.25;;;;;;;;;;5067839;28;20178;-44
2020/12/02 06:55:55;;;;;;;9.52;6.38;;;;;;;;;;5075920;28;20183;-49
2020/12/02 06:58:21;;;;;;;9.25;6.35;;;;;;;;;;5075396;28;20494;-49
2020/12/02 07:00:48;;;;;;;8.73;5.85;;;;;;;;;;5076330;28;20206;-45
2020/12/02 07:03:14;;;;;;;10.73;5.78;;;;;;;;;;5077573;28;20182;-44
2020/12/02 07:05:44;;;;;;;10.30;6.32;;;;;;;;;;5076912;28;20717;-44
2020/12/02 07:08:15;;;;;;;15.95;6.03;;;;;;;;;;5074707;28;20202;-44
2020/12/02 07:10:43;;;;;;;9.63;6.55;;;;;;;;;;5075439;28;20467;-44
2020/12/02 07:13:15;;;;;;;8.00;6.10;;;;;;;;;;5075334;28;20182;-44
2020/12/02 07:15:41;;;;;;;9.55;6.75;;;;;;;;;;5077127;28;20193;-45
2020/12/02 07:18:18;;;;;;;8.50;6.25;;;;;;;;;;5066647;28;20217;-44
2020/12/02 07:20:46;;;;;;;9.00;6.18;;;;;;;;;;5056795;28;20246;-44
2020/12/02 07:23:13;;;;;;;6.93;5.30;;;;;;;;;;5056493;28;20191;-44
2020/12/02 07:25:39;;;;;;;9.60;6.68;;;;;;;;;;5055837;28;20554;-44
2020/12/02 07:28:13;;;;;;;8.27;5.70;;;;;;;;;;5057360;28;20179;-44
2020/12/02 07:30:40;;;;;;;10.60;6.25;;;;;;;;;;5056380;28;20207;-43
2020/12/02 07:33:26;;;;;;;7.60;6.22;;;;;;;;;;5065046;28;20181;-42
2020/12/02 07:36:12;;;;;;;9.35;6.05;;;;;;;;;;5076497;28;20178;-42
2020/12/02 07:38:38;;;;;;;10.23;5.95;;;;;;;;;;5075592;28;20440;-41
2020/12/02 07:41:06;;;;;;;7.97;6.15;;;;;;;;;;5076195;28;20198;-42
2020/12/02 07:43:32;;;;;;;7.90;6.07;;;;;;;;;;5055213;28;20211;-46
2020/12/02 07:46:02;;;;;;;7.00;6.07;;;;;;;;;;5055444;28;20218;-44
2020/12/02 07:48:29;;;;;;;8.07;6.38;;;;;;;;;;5054801;28;20258;-41
2020/12/02 07:51:00;;;;;;;7.43;5.80;;;;;;;;;;5065142;28;20197;-42
2020/12/02 07:53:45;;;;;;;9.60;5.70;;;;;;;;;;5074328;28;20181;-43
2020/12/02 07:56:17;;;;;;;8.23;5.80;;;;;;;;;;5056233;28;20215;-43
2020/12/02 07:58:44;;;;;;;10.02;6.28;;;;;;;;;;5062349;28;20210;-43
2020/12/02 08:01:33;;;;;;;8.38;5.90;;;;;;;;;;5065178;28;20524;-43
2020/12/02 08:04:12;;;;;;;6.93;5.75;;;;;;;;;;5072725;28;20193;-42
2020/12/02 08:06:46;;;;;;;8.00;5.97;;;;;;;;;;5071625;28;20273;-43
2020/12/02 08:09:12;;;;;;;8.07;6.20;;;;;;;;;;5074185;28;20285;-43
2020/12/02 08:11:55;;;;;;;7.45;5.63;;;;;;;;;;5074736;28;20340;-43
2020/12/02 08:14:28;;;;;;;7.22;6.50;;;;;;;;;;5064889;28;20194;-43
2020/12/02 08:16:59;;;;;;;7.75;6.43;;;;;;;;;;5065246;28;20178;-43
2020/12/02 08:19:33;;;;;;;8.68;6.20;;;;;;;;;;5073913;28;20303;-43
2020/12/02 08:21:59;;;;;;;7.63;5.95;;;;;;;;;;5074327;28;20185;-43
2020/12/02 08:24:38;;;;;;;7.28;6.28;;;;;;;;;;5054641;28;20183;-43
2020/12/02 08:27:04;;;;;;;8.02;6.35;;;;;;;;;;5055055;28;20179;-43
2020/12/02 08:29:32;;;;;;;7.45;5.82;;;;;;;;;;5075442;28;20212;-43
2020/12/02 08:32:01;;;;;;;7.55;6.07;;;;;;;;;;5074928;28;20201;-43
2020/12/02 08:34:29;;;;;;;7.65;6.40;;;;;;;;;;5055173;28;20262;-43
2020/12/02 08:37:10;;;;;;;6.95;6.25;;;;;;;;;;5059217;28;20189;-43
2020/12/02 08:39:37;;;;;;;7.43;5.82;;;;;;;;;;5074703;28;20265;-43
2020/12/02 08:42:02;;;;;;;6.18;5.57;;;;;;;;;;5073299;28;20193;-43
2020/12/02 08:44:28;;;;;;;7.10;5.82;;;;;;;;;;5074904;28;20175;-43
2020/12/02 08:46:54;;;;;;;6.80;6.05;;;;;;;;;;5075203;28;20553;-43
2020/12/02 08:49:23;;;;;;;6.10;5.50;;;;;;;;;;5077989;28;20178;-43
2020/12/02 08:51:49;;;;;;;6.88;5.72;;;;;;;;;;5055630;28;20285;-43
2020/12/02 08:54:16;;;;;;;6.50;5.80;;;;;;;;;;5056190;28;20282;-43
2020/12/02 08:56:43;;;;;;;6.22;5.60;;;;;;;;;;5061026;28;20163;-43
2020/12/02 08:59:10;;;;;;;6.68;5.88;;;;;;;;;;5076284;28;20274;-43
2020/12/02 09:01:36;;;;;;;6.30;5.70;;;;;;;;;;5079652;28;20192;-43
2020/12/02 09:04:02;;;;;;;6.05;5.45;;;;;;;;;;5078761;28;20178;-43
2020/12/02 09:06:28;;;;;;;6.88;6.20;;;;;;;;;;5073908;28;20254;-43
2020/12/02 09:08:55;;;;;;;6.80;6.15;;;;;;;;;;5079129;28;20282;-44
2020/12/02 09:11:26;;;;;;;6.43;5.70;;;;;;;;;;5089547;28;20251;-43
2020/12/02 09:13:52;;;;;;;5.82;5.22;;;;;;;;;;5086258;28;20178;-43
2020/12/02 09:16:19;;;;;;;6.07;5.55;;;;;;;;;;5098787;28;20549;-43
2020/12/02 09:18:45;;;;;;;6.00;5.45;;;;;;;;;;5085726;28;20208;-43
2020/12/02 09:21:11;;;;;;;6.30;5.70;;;;;;;;;;5098915;28;20272;-43
2020/12/02 09:23:37;;;;;;;6.45;5.85;;;;;;;;;;5071583;28;20217;-43
2020/12/02 09:26:03;;;;;;;7.40;6.00;;;;;;;;;;5058473;28;20214;-43
2020/12/02 09:28:29;;;;;;;6.32;5.72;;;;;;;;;;5078522;28;20189;-43
2020/12/02 09:30:55;;;;;;;8.52;7.43;;;;;;;;;;5096481;28;20289;-43
2020/12/02 09:33:21;;;;;;;8.05;6.28;;;;;;;;;;5098637;28;20257;-45
2020/12/02 09:35:47;;;;;;;15.23;13.63;;;;;;;;;;5089718;28;20186;-43
2020/12/02 09:38:14;;;;;;;14.95;13.35;;;;;;;;;;5094915;28;20214;-48
2020/12/02 09:40:40;;;;;;;18.67;14.43;;;;;;;;;;5096833;28;20556;-45
2020/12/02 09:43:15;;;;;;;18.02;16.15;;;;;;;;;;5092549;28;20182;-40
2020/12/02 09:45:50;;;;;;;17.65;15.00;;;;;;;;;;5087015;28;20255;-44
2020/12/02 09:48:18;;;;;;;17.70;15.43;;;;;;;;;;5074015;28;20221;-44
2020/12/02 09:50:44;;;;;;;17.10;14.55;;;;;;;;;;5076746;28;20202;-44
2020/12/02 09:53:23;;;;;;;18.33;15.55;;;;;;;;;;5087806;28;20591;-46
2020/12/02 09:55:49;;;;;;;21.08;16.83;;;;;;;;;;5090962;28;20197;-46
2020/12/02 09:58:16;;;;;;;17.15;14.45;;;;;;;;;;5061420;28;20183;-45
2020/12/02 10:00:42;;;;;;;20.15;15.98;;;;;;;;;;5066861;28;20209;-44
2020/12/02 10:03:33;;;;;;;18.48;15.98;;;;;;;;;;5071989;28;20191;-45
2020/12/02 10:06:19;;;;;;;16.52;11.45;;;;;;;;;;5065135;28;20237;-41
2020/12/02 10:08:57;;;;;;;11.70;10.45;;;;;;;;;;5061997;28;20214;-40
2020/12/02 10:11:23;;;;;;;11.27;9.43;;;;;;;;;;5078841;28;20297;-42
2020/12/02 10:13:59;;;;;;;15.75;9.05;;;;;;;;;;5077653;28;20282;-42
2020/12/02 10:16:25;;;;;;;10.10;8.38;;;;;;;;;;5085885;28;20199;-40
2020/12/02 10:19:02;;;;;;;9.45;8.20;;;;;;;;;;5095874;28;20209;-42
2020/12/02 10:21:37;;;;;;;9.20;7.85;;;;;;;;;;5085611;28;20276;-43
2020/12/02 10:24:03;;;;;;;8.23;7.30;;;;;;;;;;5075318;28;20219;-44
2020/12/02 10:26:29;;;;;;;9.65;7.25;;;;;;;;;;5068158;28;20191;-45
2020/12/02 10:28:57;;;;;;;8.68;7.50;;;;;;;;;;5067732;28;20185;-43
2020/12/02 10:31:41;;;;;;;10.77;8.15;;;;;;;;;;5078658;28;20803;-47
2020/12/02 10:34:18;;;;;;;16.88;9.35;;;;;;;;;;5084115;28;20211;-41
2020/12/02 10:36:48;;;;;;;17.75;10.25;;;;;;;;;;5074101;28;20186;-42
2020/12/02 10:39:17;;;;;;;20.40;10.57;;;;;;;;;;5078566;28;20174;-42
2020/12/02 10:41:52;;;;;;;13.80;9.68;;;;;;;;;;5092584;28;20189;-45
2020/12/02 10:44:25;;;;;;;14.85;8.65;;;;;;;;;;5086805;28;20230;-46
2020/12/02 10:47:10;;;;;;;20.23;9.10;;;;;;;;;;5097559;28;20181;-46
2020/12/02 10:49:36;;;;;;;13.18;8.73;;;;;;;;;;5074014;28;20187;-46
2020/12/02 10:52:02;;;;;;;19.35;9.05;;;;;;;;;;5076429;28;20206;-46
2020/12/02 10:54:34;;;;;;;17.67;9.57;;;;;;;;;;5072173;28;20174;-45
2020/12/02 10:57:02;;;;;;;17.83;9.18;;;;;;;;;;5076709;28;20171;-46
2020/12/02 11:00:22;;;;;;;16.67;9.35;;;;;;;;;;5092298;27;20559;-44
2020/12/02 11:03:02;;;;;;;14.98;8.95;;;;;;;;;;5092499;28;20199;-44
2020/12/02 11:05:28;;;;;;;15.80;9.68;;;;;;;;;;5091884;28;20189;-44
2020/12/02 11:08:02;;;;;;;16.08;9.48;;;;;;;;;;5092140;28;20565;-45
2020/12/02 11:10:45;;;;;;;22.17;9.02;;;;;;;;;;5092327;28;20186;-45
2020/12/02 11:13:20;;;;;;;18.45;8.90;;;;;;;;;;5091855;28;20182;-47
2020/12/02 11:15:49;;;;;;;20.55;9.48;;;;;;;;;;5091758;28;20188;-46
2020/12/02 11:18:24;;;;;;;19.17;9.90;;;;;;;;;;5092487;28;20220;-46
2020/12/02 11:20:59;;;;;;;18.90;10.40;;;;;;;;;;5092551;28;20677;-42
2020/12/02 11:23:52;;;;;;;19.95;10.60;;;;;;;;;;5092267;28;20209;-43
2020/12/02 11:26:30;;;;;;;14.15;10.32;;;;;;;;;;5068686;28;20194;-43
2020/12/02 11:28:57;;;;;;;15.90;10.07;;;;;;;;;;5092322;28;20192;-43
2020/12/02 11:31:41;;;;;;;19.13;10.80;;;;;;;;;;5097182;28;20579;-43
2020/12/02 11:34:13;;;;;;;21.98;15.13;;;;;;;;;;5093628;28;20182;-43
2020/12/02 11:36:53;;;;;;;20.40;14.23;;;;;;;;;;5105764;28;20165;-45
2020/12/02 11:39:37;;;;;;;20.38;15.60;;;;;;;;;;5093158;28;20209;-46
2020/12/02 11:42:10;;;;;;;19.80;15.77;;;;;;;;;;5091688;28;20174;-43
2020/12/02 11:44:41;;;;;;;12.50;10.15;;;;;;;;;;5091421;28;20188;-43
2020/12/02 11:47:27;;;;;;;14.98;10.40;;;;;;;;;;5091990;28;20178;-43
2020/12/02 11:49:55;;;;;;;14.10;9.95;;;;;;;;;;5092358;28;20441;-44
2020/12/02 11:52:34;;;;;;;18.92;10.63;;;;;;;;;;5091844;28;20177;-42
2020/12/02 11:55:01;;;;;;;22.42;11.57;;;;;;;;;;5091004;28;20215;-43
2020/12/02 11:57:27;;;;;;;26.02;12.35;;;;;;;;;;5092460;28;20182;-42
2020/12/02 11:59:54;;;;;;;33.85;12.70;;;;;;;;;;5089585;28;20219;-42
2020/12/02 12:02:34;;;;;;;34.15;13.23;;;;;;;;;;5080695;28;20178;-42
2020/12/02 12:05:00;;;;;;;33.47;13.60;;;;;;;;;;5071619;28;20178;-42
2020/12/02 12:07:44;;;;;;;40.45;15.32;;;;;;;;;;5079982;28;20182;-42
2020/12/02 12:10:16;;;;;;;35.85;14.63;;;;;;;;;;5073354;28;20693;-42
2020/12/02 12:12:50;;;;;;;37.58;15.15;;;;;;;;;;5059853;28;20179;-42
2020/12/02 12:15:34;;;;;;;36.83;15.55;;;;;;;;;;5067658;28;20220;-42
2020/12/02 12:18:22;;;;;;;41.97;16.10;;;;;;;;;;5068306;28;20566;-42
2020/12/02 12:20:55;;;;;;;37.05;16.77;;;;;;;;;;5058822;28;20476;-42
2020/12/02 12:23:30;;;;;;;37.50;15.25;;;;;;;;;;5059805;28;20190;-43
2020/12/02 12:25:57;;;;;;;33.15;14.80;;;;;;;;;;5073414;28;20178;-42
2020/12/02 12:28:28;;;;;;;35.70;15.18;;;;;;;;;;5060609;28;20183;-42
2020/12/02 12:31:07;;;;;;;29.15;14.32;;;;;;;;;;5057764;28;20299;-42
2020/12/02 12:33:43;;;;;;;27.90;13.98;;;;;;;;;;5070902;28;20182;-42
2020/12/02 12:36:20;;;;;;;30.33;14.30;;;;;;;;;;5073558;28;20182;-42
2020/12/02 12:38:49;;;;;;;29.95;13.45;;;;;;;;;;5062489;28;20280;-42
2020/12/02 12:41:22;;;;;;;32.08;13.00;;;;;;;;;;5070307;28;20487;-42
2020/12/02 12:44:00;;;;;;;27.40;13.07;;;;;;;;;;5077681;28;20206;-42
2020/12/02 12:46:33;;;;;;;26.45;12.38;;;;;;;;;;5059718;28;20558;-42
2020/12/02 12:48:59;;;;;;;23.60;12.27;;;;;;;;;;5057163;28;20214;-43
2020/12/02 12:51:28;;;;;;;31.85;14.18;;;;;;;;;;5057642;28;20175;-42
2020/12/02 12:53:55;;;;;;;29.90;12.68;;;;;;;;;;5063431;28;20566;-42
2020/12/02 12:56:21;;;;;;;26.85;11.80;;;;;;;;;;5076270;28;20261;-44
2020/12/02 12:58:48;;;;;;;20.60;11.43;;;;;;;;;;5067446;28;20604;-45
2020/12/02 13:01:14;;;;;;;25.63;12.45;;;;;;;;;;5077547;28;20184;-44
2020/12/02 13:03:40;;;;;;;23.70;12.32;;;;;;;;;;5073818;28;20175;-46
2020/12/02 13:06:15;;;;;;;24.55;11.77;;;;;;;;;;5072541;28;20500;-44
2020/12/02 13:08:43;;;;;;;19.90;10.15;;;;;;;;;;5071037;28;20186;-43
2020/12/02 13:11:12;;;;;;;24.77;11.13;;;;;;;;;;5057932;28;20578;-44
2020/12/02 13:13:47;;;;;;;22.92;11.52;;;;;;;;;;5062006;28;20254;-49
2020/12/02 13:16:24;;;;;;;20.63;10.30;;;;;;;;;;5058370;28;20217;-45
2020/12/02 13:19:02;;;;;;;19.85;10.98;;;;;;;;;;5058117;28;20225;-44
2020/12/02 13:21:33;;;;;;;19.60;10.52;;;;;;;;;;5057310;28;20167;-43
2020/12/02 13:24:18;;;;;;;20.42;10.65;;;;;;;;;;5057406;28;20174;-45
2020/12/02 13:26:44;;;;;;;20.55;10.38;;;;;;;;;;5057677;28;20404;-45
2020/12/02 13:29:31;;;;;;;19.98;10.38;;;;;;;;;;5054493;28;20443;-43
2020/12/02 13:31:57;;;;;;;20.15;10.45;;;;;;;;;;5056739;28;20225;-46
2020/12/02 13:34:23;;;;;;;20.85;9.77;;;;;;;;;;5056239;28;20183;-44
2020/12/02 13:36:51;;;;;;;18.95;10.10;;;;;;;;;;5056956;28;20262;-43
2020/12/02 13:39:17;;;;;;;19.67;10.18;;;;;;;;;;5056317;28;20202;-42
2020/12/02 13:41:57;;;;;;;18.08;9.60;;;;;;;;;;5056905;28;20190;-43
2020/12/02 13:44:35;;;;;;;16.30;9.35;;;;;;;;;;5056262;28;20186;-42
2020/12/02 13:47:02;;;;;;;16.67;9.48;;;;;;;;;;5056793;28;20250;-42
2020/12/02 13:49:27;;;;;;;15.60;9.25;;;;;;;;;;5056875;28;20179;-43
2020/12/02 13:51:56;;;;;;;16.40;9.18;;;;;;;;;;5056483;28;20295;-42
2020/12/02 13:54:30;;;;;;;14.73;8.98;;;;;;;;;;5059774;28;20306;-42
2020/12/02 13:57:18;;;;;;;15.45;9.40;;;;;;;;;;5069110;28;20266;-43
2020/12/02 13:59:57;;;;;;;17.02;8.85;;;;;;;;;;5056278;28;20203;-44
2020/12/02 14:02:58;;;;;;;15.13;9.30;;;;;;;;;;5056668;28;20179;-42
2020/12/02 14:05:24;;;;;;;15.02;9.15;;;;;;;;;;4961856;28;20185;-43
2020/12/02 14:07:51;;;;;;;11.32;8.02;;;;;;;;;;5037739;28;20270;-43
2020/12/02 14:10:17;;;;;;;14.50;8.90;;;;;;;;;;5055788;28;20224;-42
2020/12/02 14:12:43;;;;;;;15.23;8.65;;;;;;;;;;5066306;28;20236;-42
2020/12/02 14:15:13;;;;;;;12.88;8.93;;;;;;;;;;5072792;28;20186;-42
2020/12/02 14:17:39;;;;;;;18.08;9.27;;;;;;;;;;5062591;28;20258;-42
2020/12/02 14:20:05;;;;;;;11.35;8.30;;;;;;;;;;5056168;28;20206;-44
2020/12/02 14:22:33;;;;;;;14.27;8.23;;;;;;;;;;5071700;28;20312;-42
2020/12/02 14:25:03;;;;;;;12.65;8.02;;;;;;;;;;5075006;28;20201;-42
2020/12/02 14:27:31;;;;;;;15.23;9.07;;;;;;;;;;5075211;28;20178;-45
2020/12/02 14:29:57;;;;;;;13.98;7.97;;;;;;;;;;5066918;28;20183;-44
2020/12/02 14:32:24;;;;;;;14.65;7.75;;;;;;;;;;5071182;28;20257;-44
2020/12/02 14:34:51;;;;;;;13.00;8.23;;;;;;;;;;5060808;28;20191;-44
2020/12/02 14:37:17;;;;;;;9.52;7.57;;;;;;;;;;5073944;28;20190;-44
2020/12/02 14:39:43;;;;;;;14.38;8.52;;;;;;;;;;5074031;28;20198;-43
2020/12/02 14:42:11;;;;;;;13.05;8.25;;;;;;;;;;5060034;28;20216;-45
2020/12/02 14:44:38;;;;;;;12.93;7.95;;;;;;;;;;5073141;28;20171;-45
2020/12/02 14:47:05;;;;;;;14.05;7.63;;;;;;;;;;5074941;28;20181;-46
2020/12/02 14:49:31;;;;;;;11.40;7.68;;;;;;;;;;5066991;28;20186;-45
2020/12/02 14:51:57;;;;;;;12.23;7.75;;;;;;;;;;5061142;28;20200;-44
2020/12/02 14:54:23;;;;;;;12.63;7.93;;;;;;;;;;5057239;28;20191;-44
2020/12/02 14:56:55;;;;;;;9.98;7.05;;;;;;;;;;5076815;28;20198;-44
2020/12/02 14:59:50;;;;;;;11.55;7.22;;;;;;;;;;5065586;28;20293;-42
2020/12/02 15:02:17;;;;;;;11.68;7.40;;;;;;;;;;5050269;28;20195;-43
2020/12/02 15:04:44;;;;;;;12.75;7.18;;;;;;;;;;5054664;28;20175;-43